Latest Weather Observations for Blackwater Airport

IDQ60801

Issued at 10:31 pm EST Saturday 29 August 2015 (issued every 30 minutes, with the page automatically refreshed every 10 minutes)

About weather observations | Map of weather stations | Latest weather observations for QLD | Other Formats
Station Details ID: 035134 Name: BLACKWATER AIRPORT Lat: -23.60 Lon: 148.81 Height: 192.95 m
Data from the previous 72 hours. | See also: Recent months at Blackwater Airport
Date/Time
EST
Temp
°C
App
Temp
°C
Dew
Point
Rel
Hum
%
Delta-T
°C
Wind Press
QNH
hPa
Press
MSL
hPa
Rain
since 9 am
mm
Dir
 
Spd
km/h
Gust
km/h
Spd
kts
Gust
kts
29/10:30pm 16.9 16.8 15.9 94 0.6 S 11 13 6 7 1019.6 1019.2 0.0
29/10:00pm 16.9 17.2 15.9 94 0.6 S 9 13 5 7 1019.8 1019.4 0.0
29/09:30pm 17.0 16.9 16.0 94 0.6 SE 11 13 6 7 1019.6 1019.2 0.0
29/09:00pm 16.8 18.7 15.8 94 0.6 CALM 0 6 0 3 1019.9 1019.5 0.0
29/08:30pm 16.7 16.1 15.7 94 0.6 S 13 17 7 9 1019.7 1019.3 0.0
29/08:00pm 17.4 16.5 15.9 91 0.9 SE 15 19 8 10 1018.7 1018.3 0.0
29/07:30pm 16.8 15.5 15.8 94 0.6 SSE 17 26 9 14 1018.7 1018.3 0.0
29/07:00pm 16.3 13.5 15.3 94 0.6 SSE 24 33 13 18 1018.3 1017.9 0.0
29/06:30pm 16.4 14.6 15.6 95 0.5 S 19 26 10 14 1019.0 1018.6 0.0
29/06:00pm 16.4 12.5 15.6 95 0.5 SSE 30 39 16 21 1018.3 1017.9 0.0
29/05:30pm 15.9 10.9 15.1 95 0.5 S 35 50 19 27 1018.3 1017.9 0.0
29/05:00pm 16.9 11.5 14.9 88 1.2 SSW 37 57 20 31 1017.4 1017.0 0.0
29/04:59pm 17.0 11.9 14.8 87 1.3 SSW 35 57 19 31 1017.3 1016.9 0.0
29/04:40pm 20.7 18.1 12.1 58 4.9 E 17 33 9 18 1016.4 1016.0 0.0
29/04:30pm 25.7 23.3 12.5 44 7.7 NNE 17 26 9 14 1015.7 1015.3 0.0
29/04:00pm 26.5 23.6 12.9 43 8.0 NNE 20 28 11 15 1015.5 1015.1 0.0
29/03:30pm 27.0 24.7 13.0 42 8.3 NE 17 24 9 13 1015.6 1015.2 0.0
29/03:00pm 26.6 24.2 12.6 42 8.2 NE 17 24 9 13 1016.1 1015.7 0.0
29/02:30pm 28.3 26.5 13.4 40 8.9 NE 15 22 8 12 1016.6 1016.2 0.0
29/02:00pm 28.7 26.0 13.0 38 9.3 N 19 28 10 15 1017.2 1016.8 0.0
29/01:30pm 28.0 25.1 12.4 38 9.2 NNE 19 26 10 14 1017.8 1017.4 0.0
29/01:00pm 26.5 24.8 12.5 41 8.2 NNE 13 20 7 11 1018.6 1018.2 0.0
29/12:30pm 26.6 24.2 12.6 42 8.2 NNE 17 26 9 14 1019.2 1018.9 0.0
29/12:00pm 25.7 23.3 12.5 44 7.7 NE 17 26 9 14 1020.0 1019.6 0.0
29/11:30am 25.9 23.6 13.1 45 7.5 ENE 17 26 9 14 1020.5 1020.1 0.0
29/11:00am 25.2 23.6 12.8 46 7.2 NNE 13 24 7 13 1020.9 1020.5 0.0
29/10:30am 25.2 24.1 13.1 47 7.1 N 11 17 6 9 1021.3 1020.9 0.0
29/10:00am 23.8 23.1 13.1 51 6.2 NE 9 15 5 8 1021.7 1021.3 0.0
29/09:30am 22.6 22.1 13.7 57 5.2 NNE 9 17 5 9 1021.9 1021.5 0.0
29/09:00am 22.5 21.0 13.0 55 5.5 ENE 13 19 7 10 1021.8 1021.4 0.0
29/08:30am 21.1 21.1 12.3 57 5.0 SE 4 7 2 4 1021.8 1021.4 0.0
29/08:00am 19.5 17.5 11.5 60 4.4 E 13 17 7 9 1021.2 1020.8 0.0
29/07:30am 16.6 16.6 12.4 76 2.3 ESE 4 7 2 4 1021.2 1020.8 0.0
29/07:00am 15.9 15.2 12.1 78 2.1 SSW 7 9 4 5 1021.3 1020.9 0.0
29/06:30am 15.4 14.3 11.8 79 2.0 SSW 9 9 5 5 1020.8 1020.4 0.0
29/06:00am 16.1 16.8 12.1 77 2.2 CALM 0 0 0 0 1020.5 1020.1 0.0
29/05:30am 16.1 15.4 12.1 77 2.2 ESE 7 9 4 5 1020.1 1019.7 0.0
29/05:00am 17.0 16.5 12.7 76 2.4 E 7 9 4 5 1019.9 1019.5 0.0
29/04:30am 17.9 18.3 13.8 77 2.4 ENE 4 9 2 5 1019.7 1019.3 0.0
29/04:00am 18.4 18.6 14.1 76 2.5 ENE 6 7 3 4 1019.9 1019.5 0.0
29/03:30am 18.9 19.1 14.2 74 2.7 E 6 7 3 4 1020.0 1019.6 0.0
29/03:00am 19.2 18.5 14.2 73 2.9 E 11 15 6 8 1019.9 1019.5 0.0
29/02:30am 20.0 18.2 14.4 70 3.3 E 17 24 9 13 1020.1 1019.7 0.0
29/02:00am 19.8 18.8 14.6 72 3.0 E 13 17 7 9 1020.5 1020.1 0.0
29/01:30am 19.3 19.3 15.2 77 2.4 E 9 11 5 6 1020.7 1020.3 0.0
29/01:00am 19.0 18.2 15.1 78 2.3 E 13 17 7 9 1021.0 1020.6 0.0
29/12:30am 18.7 18.2 14.8 78 2.3 E 11 13 6 7 1021.0 1020.6 0.0
29/12:00am 18.7 18.9 14.6 77 2.4 ENE 7 11 4 6 1020.9 1020.5 0.0
 
Date/Time
EST
Temp
°C
App
Temp
°C
Dew
Point
Rel
Hum
%
Delta-T
°C
Wind Press
QNH
hPa
Press
MSL
hPa
Rain
since 9 am
mm
Dir
 
Spd
km/h
Gust
km/h
Spd
kts
Gust
kts
28/11:30pm 19.2 18.7 14.9 76 2.5 E 11 13 6 7 1020.5 1020.1 0.0
28/11:00pm 19.3 18.8 13.9 71 3.1 NE 9 11 5 6 1020.7 1020.3 0.0
28/10:30pm 20.5 18.7 14.4 68 3.6 NE 17 24 9 13 1020.6 1020.2 0.0
28/10:00pm 19.4 18.0 14.6 74 2.8 NE 15 26 8 14 1020.8 1020.4 0.0
28/09:30pm 18.5 18.0 13.8 74 2.7 SSE 9 11 5 6 1020.2 1019.8 0.0
28/09:00pm 19.0 18.6 14.1 73 2.8 SSE 9 11 5 6 1020.1 1019.7 0.0
28/08:30pm 19.4 19.1 13.3 68 3.5 SE 7 9 4 5 1019.8 1019.4 0.0
28/08:00pm 20.4 20.3 13.8 66 3.8 ESE 7 7 4 4 1019.7 1019.3 0.0
28/07:30pm 20.5 19.6 13.7 65 3.9 ESE 11 15 6 8 1019.0 1018.6 0.0
28/07:00pm 21.5 21.0 13.9 62 4.4 SE 9 11 5 6 1018.9 1018.5 0.0
28/06:30pm 21.5 20.2 13.7 61 4.5 SSE 13 15 7 8 1018.6 1018.2 0.0
28/06:00pm 22.9 21.6 13.7 56 5.4 SSE 13 17 7 9 1018.2 1017.8 0.0
28/05:30pm 24.6 22.2 13.8 51 6.4 SSE 19 24 10 13 1017.9 1017.5 0.0
28/05:00pm 25.3 24.4 13.8 49 6.8 SSE 11 15 6 8 1017.6 1017.2 0.0
28/04:30pm 25.5 24.6 13.7 48 7.0 SE 11 19 6 10 1017.4 1017.0 0.0
28/04:00pm 26.4 25.8 13.5 45 7.6 ESE 9 17 5 9 1017.6 1017.2 0.0
28/03:30pm 25.9 25.7 13.7 47 7.2 SSE 7 13 4 7 1017.7 1017.3 0.0
28/03:00pm 25.7 25.4 13.2 46 7.3 ESE 7 11 4 6 1017.6 1017.2 0.0
28/02:30pm 26.8 25.7 13.2 43 8.0 ENE 11 19 6 10 1017.5 1017.1 0.0
28/02:00pm 26.6 25.6 13.3 43 7.9 NE 11 17 6 9 1017.8 1017.4 0.0
28/01:30pm 25.3 25.1 13.5 48 7.0 NE 7 13 4 7 1018.6 1018.2 0.0
28/01:00pm 24.8 24.8 13.7 50 6.6 E 6 13 3 7 1019.4 1019.1 0.0
28/12:30pm 24.2 24.2 13.7 52 6.2 N 6 13 3 7 1020.0 1019.6 0.0
28/12:00pm 23.4 22.6 14.1 56 5.5 SE 11 22 6 12 1020.5 1020.1 0.0
28/11:30am 23.4 23.2 14.7 58 5.2 ENE 9 15 5 8 1021.2 1020.8 0.0
28/11:00am 23.2 22.5 14.2 57 5.3 ESE 11 17 6 9 1021.6 1021.2 0.0
28/10:30am 23.2 22.1 14.2 57 5.3 E 13 20 7 11 1021.9 1021.5 0.0
28/10:00am 22.3 22.3 14.2 60 4.8 E 7 15 4 8 1022.2 1021.8 0.0
28/09:30am 22.2 21.8 14.1 60 4.8 E 9 13 5 7 1022.3 1021.9 0.0
28/09:00am 22.1 21.7 14.2 61 4.6 SE 9 15 5 8 1022.4 1022.0 0.0
28/08:30am 21.6 22.0 14.7 65 4.1 SE 6 11 3 6 1022.4 1022.0 0.0
28/08:00am 19.6 20.5 15.0 75 2.7 SSE 4 7 2 4 1022.1 1021.7 0.0
28/07:30am 18.6 18.9 14.9 79 2.2 SW 7 9 4 5 1022.0 1021.6 0.0
28/07:00am 18.2 18.6 14.7 80 2.0 S 6 7 3 4 1021.7 1021.3 0.0
28/06:30am 17.7 19.2 14.6 82 1.8 CALM 0 0 0 0 1021.2 1020.8 0.0
28/06:00am 17.6 19.0 14.3 81 1.9 CALM 0 0 0 0 1020.7 1020.3 0.0
28/05:30am 18.1 18.5 14.8 81 1.9 SSW 6 7 3 4 1020.5 1020.1 0.0
28/05:00am 17.6 17.9 14.5 82 1.8 ENE 6 7 3 4 1020.2 1019.8 0.0
28/04:30am 17.5 18.8 14.2 81 1.9 CALM 0 7 0 4 1019.8 1019.4 0.0
28/04:00am 18.3 18.3 14.2 77 2.4 S 7 9 4 5 1019.7 1019.3 0.0
28/03:30am 18.2 18.4 14.1 77 2.4 ESE 6 9 3 5 1019.4 1019.1 0.0
28/03:00am 18.5 18.8 14.6 78 2.3 SW 6 7 3 4 1020.0 1019.6 0.0
28/02:30am 18.6 19.9 14.1 75 2.6 CALM 0 0 0 0 1020.1 1019.7 0.0
28/02:00am 18.7 18.0 14.4 76 2.5 SSE 11 15 6 8 1019.8 1019.4 0.0
28/01:30am 18.8 18.2 14.5 76 2.5 SSW 11 13 6 7 1020.1 1019.7 0.0
28/01:00am 18.9 18.2 14.4 75 2.6 SSW 11 13 6 7 1020.6 1020.2 0.0
28/12:30am 19.2 18.1 14.2 73 2.9 SW 13 15 7 8 1020.9 1020.5 0.0
28/12:00am 19.3 18.9 14.1 72 3.0 SSE 9 11 5 6 1021.0 1020.6 0.0
 
Date/Time
EST
Temp
°C
App
Temp
°C
Dew
Point
Rel
Hum
%
Delta-T
°C
Wind Press
QNH
hPa
Press
MSL
hPa
Rain
since 9 am
mm
Dir
 
Spd
km/h
Gust
km/h
Spd
kts
Gust
kts
27/11:30pm 19.1 18.7 14.1 73 2.9 SSE 9 11 5 6 1021.2 1020.8 0.0
27/11:00pm 18.8 19.0 14.3 75 2.6 S 6 7 3 4 1021.3 1020.9 0.0
27/10:30pm 19.0 19.7 14.5 75 2.6 ESE 4 7 2 4 1021.3 1020.9 0.0
27/10:00pm 19.1 18.2 13.7 71 3.1 SSW 11 13 6 7 1021.3 1020.9 0.0
27/09:30pm 19.3 18.9 14.1 72 3.0 SSW 9 11 5 6 1021.2 1020.8 0.0
27/09:00pm 19.7 19.1 14.5 72 3.0 S 11 13 6 7 1021.0 1020.6 0.0
27/08:30pm 19.2 18.6 14.7 75 2.6 SSW 11 15 6 8 1020.9 1020.5 0.0
27/08:00pm 19.6 18.8 15.0 75 2.7 SSW 13 15 7 8 1020.5 1020.1 0.0
27/07:30pm 20.9 19.8 14.3 66 3.9 S 13 15 7 8 1020.2 1019.8 0.0
27/07:00pm 21.1 20.3 14.0 64 4.1 S 11 13 6 7 1020.0 1019.6 0.0
27/06:30pm 21.3 20.1 14.0 63 4.3 SSW 13 15 7 8 1019.7 1019.3 0.0
27/06:00pm 21.8 20.5 13.7 60 4.7 SSW 13 15 7 8 1019.3 1019.0 0.0
27/05:30pm 23.2 22.3 13.7 55 5.6 SSW 11 13 6 7 1018.7 1018.3 0.0
27/05:00pm 23.6 22.5 13.2 52 6.1 S 11 15 6 8 1018.6 1018.2 0.0
27/04:30pm 23.7 22.3 13.3 52 6.1 S 13 15 7 8 1018.5 1018.1 0.0
27/04:00pm 23.3 21.5 13.2 53 5.9 S 15 20 8 11 1018.4 1018.0 0.0
27/03:30pm 23.7 20.9 13.3 52 6.1 SSW 20 28 11 15 1018.8 1018.4 0.0
27/03:00pm 23.7 21.2 13.6 53 5.9 SSW 19 28 10 15 1019.0 1018.6 0.0
27/02:30pm 24.1 22.1 13.9 53 6.0 SW 17 20 9 11 1019.3 1019.0 0.0
27/02:00pm 23.8 22.2 13.9 54 5.8 SW 15 20 8 11 1019.7 1019.3 0.0
27/01:30pm 23.8 22.7 14.2 55 5.7 SSW 13 19 7 10 1019.8 1019.4 0.0
27/01:00pm 23.6 21.6 13.8 54 5.8 SW 17 26 9 14 1020.4 1020.0 0.0
27/12:30pm 23.2 21.4 14.5 58 5.2 WSW 17 22 9 12 1021.0 1020.6 0.0
27/12:00pm 23.8 23.8 14.2 55 5.7 SSW 7 17 4 9 1021.2 1020.8 0.0
27/11:30am 23.6 23.3 14.3 56 5.5 SSW 9 15 5 8 1021.9 1021.5 0.0
27/11:00am 22.9 22.7 13.1 54 5.7 S 6 13 3 7 1022.5 1022.1 0.0
27/10:30am 23.1 22.1 13.3 54 5.7 N 11 17 6 9 1022.5 1022.1 0.0
27/10:00am 22.0 21.8 14.6 63 4.4 N 9 13 5 7 1022.7 1022.3 0.0
27/09:30am 21.4 21.0 15.3 68 3.7 NE 11 17 6 9 1022.7 1022.3 0.0
27/09:00am 21.0 21.4 16.4 75 2.8 ESE 9 15 5 8 1022.3 1021.9 0.2
27/08:30am 19.1 19.7 15.8 81 2.0 SSW 7 15 4 8 1022.8 1022.4 0.2
27/08:00am 17.8 18.7 16.5 92 0.8 S 7 9 4 5 1022.7 1022.3 0.2
27/07:30am 16.7 17.4 15.7 94 0.6 SW 6 11 3 6 1022.5 1022.1 0.2
27/07:00am 15.7 16.2 14.9 95 0.5 S 6 7 3 4 1021.8 1021.4 0.2
27/06:30am 15.3 15.6 14.5 95 0.5 WSW 6 9 3 5 1021.5 1021.1 0.2
27/06:00am 14.6 14.5 13.8 95 0.5 SW 7 11 4 6 1021.1 1020.7 0.2
27/05:30am 14.5 14.3 13.5 94 0.6 SW 7 9 4 5 1020.6 1020.2 0.2
27/05:00am 15.0 14.9 13.9 93 0.6 S 7 9 4 5 1020.0 1019.6 0.2
27/04:30am 15.5 15.5 13.5 88 1.1 ESE 6 9 3 5 1019.8 1019.4 0.2
27/04:00am 15.8 15.5 14.3 91 0.9 NE 9 13 5 7 1019.7 1019.3 0.2
27/03:30am 16.1 16.4 14.5 90 0.9 NE 6 7 3 4 1019.6 1019.2 0.2
27/03:00am 16.2 15.8 14.0 87 1.3 NE 9 11 5 6 1019.6 1019.2 0.2
27/02:30am 17.5 18.1 15.3 87 1.3 E 6 7 3 4 1019.8 1019.4 0.2
27/02:00am 17.7 18.1 15.3 86 1.4 SSE 7 7 4 4 1020.4 1020.0 0.2
27/01:30am 18.2 17.2 15.6 85 1.5 SSE 15 19 8 10 1021.1 1020.7 0.2
27/01:00am 18.2 16.2 15.6 85 1.5 SE 20 28 11 15 1021.3 1020.9 0.2
27/12:30am 18.2 16.3 15.8 86 1.4 SE 20 30 11 16 1021.6 1021.2 0.2
27/12:00am 18.5 16.4 16.1 86 1.4 SSE 22 30 12 16 1022.1 1021.7 0.2
 
Date/Time
EST
Temp
°C
App
Temp
°C
Dew
Point
Rel
Hum
%
Delta-T
°C
Wind Press
QNH
hPa
Press
MSL
hPa
Rain
since 9 am
mm
Dir
 
Spd
km/h
Gust
km/h
Spd
kts
Gust
kts
26/11:30pm 18.9 16.5 16.3 85 1.6 SSE 24 33 13 18 1022.7 1022.3 0.2
26/11:00pm 20.0 17.8 16.0 78 2.4 S 22 33 12 18 1022.9 1022.5 0.2

Other Formats:

Comma delimited format used in spreadsheet applications
http://www.bom.gov.au/fwo/IDQ60801/IDQ60801.94398.axf

JavaScript Object Notation format (JSON) in row-major order
http://www.bom.gov.au/fwo/IDQ60801/IDQ60801.94398.json